TRA44I LGIR-EHRD
Flight info
| Callsign | TRA44I |
|---|---|
| Flight time | N/A |
| Altitude | 32000 |
| Route | EPALO M749 DIRMI UL613 KOR DCT TUMBO DCT RODON DCT VAKSU DCT PUL DCT PEVAL DCT MOBDO DCT SOTOV DCT XEBIX DCT USUDO DCT LIRSU DCT SOGRI L608 BUB Y28 HELEN |
| Aircraft | B738/M-SDE2E3FGHIRWXY/LB1 |
Departure
| Time | 2026-05-05 19:03 |
|---|---|
| Airport | Heraklion International Nikos Kazantzakis Airport (LGIR) |
Arrival
| Time | N/A |
|---|---|
| Airport | Rotterdam The Hague Airport (EHRD) |
| Time | Latitude | Longitude | Altitude | Speed | Heading |
|---|---|---|---|---|---|
| 2026-05-05 18:49 | 35.33805 | 25.17415 | 85 ft | 0 kts | 274° |
| 2026-05-05 18:58 | 35.33805 | 25.17412 | 85 ft | 2 kts | 274° |
| 2026-05-05 18:59 | 35.33821 | 25.17378 | 89 ft | 7 kts | 334° |
| 2026-05-05 18:59 | 35.33884 | 25.17378 | 89 ft | 10 kts | 4° |
| 2026-05-05 18:59 | 35.33916 | 25.17440 | 86 ft | 10 kts | 96° |
| 2026-05-05 18:59 | 35.33910 | 25.17527 | 87 ft | 11 kts | 95° |
| 2026-05-05 19:00 | 35.33901 | 25.17655 | 87 ft | 19 kts | 95° |
| 2026-05-05 19:00 | 35.33888 | 25.17845 | 89 ft | 26 kts | 95° |
| 2026-05-05 19:00 | 35.33872 | 25.18081 | 92 ft | 29 kts | 95° |
| 2026-05-05 19:00 | 35.33854 | 25.18341 | 96 ft | 32 kts | 95° |
| 2026-05-05 19:01 | 35.33832 | 25.18609 | 92 ft | 32 kts | 95° |
| 2026-05-05 19:01 | 35.33818 | 25.18837 | 90 ft | 21 kts | 95° |
| 2026-05-05 19:01 | 35.33836 | 25.18967 | 89 ft | 14 kts | 54° |
| 2026-05-05 19:01 | 35.33888 | 25.19028 | 87 ft | 7 kts | 349° |
| 2026-05-05 19:02 | 35.33909 | 25.18976 | 88 ft | 7 kts | 275° |
| 2026-05-05 19:02 | 35.33912 | 25.18915 | 90 ft | 9 kts | 275° |
| 2026-05-05 19:02 | 35.33938 | 25.18541 | 87 ft | 82 kts | 275° |
| 2026-05-05 19:02 | 35.34007 | 25.17556 | 88 ft | 148 kts | 275° |
| 2026-05-05 19:03 | 35.34108 | 25.16122 | 312 ft | 185 kts | 274° |
| 2026-05-05 19:03 | 35.34531 | 25.14618 | 1176 ft | 189 kts | 305° |
| 2026-05-05 19:03 | 35.35488 | 25.13552 | 2221 ft | 186 kts | 331° |
| 2026-05-05 19:03 | 35.36726 | 25.13056 | 3036 ft | 188 kts | 345° |
| 2026-05-05 19:04 | 35.38026 | 25.12656 | 3626 ft | 197 kts | 343° |
| 2026-05-05 19:04 | 35.39404 | 25.12184 | 3825 ft | 218 kts | 343° |
| 2026-05-05 19:04 | 35.40919 | 25.11657 | 4169 ft | 232 kts | 343° |
| 2026-05-05 19:04 | 35.42561 | 25.11085 | 4420 ft | 254 kts | 344° |
| 2026-05-05 19:05 | 35.44274 | 25.10490 | 5179 ft | 256 kts | 345° |
| 2026-05-05 19:05 | 35.63057 | 25.04076 | 12410 ft | 278 kts | 345° |
| 2026-05-05 19:05 | 35.95433 | 24.91245 | 20664 ft | 341 kts | 334° |
| 2026-05-05 19:05 | 36.32573 | 24.65761 | 24468 ft | 421 kts | 321° |
| 2026-05-05 19:06 | 36.65730 | 24.22288 | 26801 ft | 439 kts | 315° |
| 2026-05-05 19:06 | 37.05124 | 23.86815 | 28795 ft | 431 kts | 327° |
| 2026-05-05 19:06 | 37.41485 | 23.49829 | 31213 ft | 422 kts | 316° |
| 2026-05-05 19:06 | 37.74662 | 23.10311 | 33983 ft | 401 kts | 323° |
| 2026-05-05 19:07 | 38.10794 | 22.77601 | 35620 ft | 369 kts | 320° |
| 2026-05-05 19:07 | 38.29123 | 22.55486 | 34846 ft | 316 kts | 314° |
| 2026-05-05 19:07 | 38.59988 | 22.17344 | 34595 ft | 280 kts | 321° |
| 2026-05-05 19:07 | 38.84994 | 21.91119 | 35212 ft | 306 kts | 319° |
| 2026-05-05 19:08 | 39.11653 | 21.59831 | 36303 ft | 342 kts | 315° |
| 2026-05-05 19:08 | 39.41055 | 21.24801 | 36627 ft | 382 kts | 316° |
| 2026-05-05 19:08 | 39.63084 | 20.99331 | 36570 ft | 412 kts | 316° |
| 2026-05-05 19:08 | 40.08896 | 20.44651 | 35672 ft | 421 kts | 316° |
| 2026-05-05 19:09 | 40.33198 | 20.18496 | 35783 ft | 420 kts | 322° |
| 2026-05-05 19:09 | 40.72088 | 19.84964 | 35956 ft | 415 kts | 323° |
| 2026-05-05 19:09 | 41.08831 | 19.48050 | 36137 ft | 412 kts | 318° |
| 2026-05-05 19:09 | 41.44996 | 19.10151 | 36176 ft | 419 kts | 322° |
| 2026-05-05 19:10 | 41.82885 | 18.72949 | 36028 ft | 418 kts | 319° |
| 2026-05-05 19:10 | 42.18207 | 18.32711 | 35993 ft | 416 kts | 313° |
| 2026-05-05 19:10 | 42.75896 | 17.37364 | 36175 ft | 414 kts | 310° |
| 2026-05-05 19:11 | 43.07859 | 16.92143 | 36036 ft | 414 kts | 310° |